Time;durP1;ratioP1;P1;durP2;ratioP2;P2;SDS_P1;SDS_P2;PMS_P1;PMS_P2;Temp;Humidity;BMP_temperature;BMP_pressure;BME280_temperature;BME280_humidity;BME280_pressure;Samples;Min_cycle;Max_cycle;Signal;HPM_P1;HPM_P2
2022/07/03 00:01:57;;;;;;;5.43;3.47;;;;;;;15.91;83.79;101642.59;4951908;28;20046;-86
2022/07/03 00:05:20;;;;;;;8.27;3.88;;;;;;;15.88;83.67;101637.56;4951875;28;20078;-86
2022/07/03 00:08:31;;;;;;;5.30;3.35;;;;;;;15.80;84.21;101634.72;4906770;28;20043;-85
2022/07/03 00:11:16;;;;;;;5.38;3.33;;;;;;;15.72;85.38;101653.94;4905256;29;20040;-85
2022/07/03 01:15:26;;;;;;;7.28;5.15;;;;;;;15.27;83.93;101677.91;4892992;29;20036;-86
2022/07/03 01:29:09;;;;;;;10.27;5.60;;;;;;;15.03;84.45;101674.53;4988050;28;20525;-86
2022/07/03 01:42:40;;;;;;;;;;;;;;;;;;;;;
2022/07/03 01:56:45;;;;;;;;;;;;;;;;;;;;;
2022/07/03 02:10:29;;;;;;;7.15;6.07;;;;;;;14.62;85.98;101664.56;4781728;29;20049;-86
2022/07/03 02:35:29;;;;;;;7.47;5.90;;;;;;;14.24;87.36;101657.72;4934770;29;20038;-86
2022/07/03 02:58:47;;;;;;;;;;;;;;;;;;;;;
2022/07/03 03:08:51;;;;;;;7.68;6.07;;;;;;;14.07;88.35;101661.66;4896259;29;21335;-86
2022/07/03 03:29:10;;;;;;;6.50;5.68;;;;;;;13.76;88.27;101672.84;4952602;28;20046;-86
2022/07/03 05:06:08;;;;;;;5.90;4.72;;;;;;;15.19;79.93;101705.97;4765786;30;20081;-87
2022/07/03 08:23:48;;;;;;;5.53;3.60;;;;;;;22.35;59.24;101741.19;4906296;29;20453;-86
2022/07/03 08:30:06;;;;;;;;;;;;;;;;;;;;;
2022/07/03 08:32:43;;;;;;;;;;;;;;;;;;;;;
2022/07/03 08:35:40;;;;;;;7.00;4.15;;;;;;;22.58;58.58;101746.72;4896460;29;20044;-87
2022/07/03 08:38:12;;;;;;;6.50;3.03;;;;;;;22.66;57.89;101727.91;4855612;29;20037;-86
2022/07/03 08:41:03;;;;;;;5.63;2.57;;;;;;;22.88;57.26;101737.13;4843419;29;20048;-87
2022/07/03 08:43:39;;;;;;;6.50;2.60;;;;;;;22.93;56.85;101735.59;4853603;29;20034;-87
2022/07/03 08:46:11;;;;;;;5.00;2.40;;;;;;;22.96;55.19;101729.06;4842489;29;20034;-88
2022/07/03 08:49:01;;;;;;;5.93;2.45;;;;;;;23.09;55.72;101734.69;4854357;29;20131;-86
2022/07/03 08:51:40;;;;;;;5.72;2.90;;;;;;;23.14;55.78;101738.53;4843860;29;20041;-87
2022/07/03 08:54:09;;;;;;;6.65;3.03;;;;;;;22.96;55.61;101727.19;4842095;29;20509;-87
2022/07/03 08:56:50;;;;;;;4.35;2.50;;;;;;;23.28;55.39;101728.09;4840873;29;20048;-86
2022/07/03 09:02:49;;;;;;;4.45;2.58;;;;;;;23.34;54.17;101732.75;4852243;29;20056;-87
2022/07/03 09:05:18;;;;;;;4.82;2.35;;;;;;;23.61;53.05;101726.91;4841192;29;20178;-87
2022/07/03 09:07:49;;;;;;;6.68;2.65;;;;;;;23.57;51.89;101728.28;4858465;29;20042;-87
2022/07/03 09:10:16;;;;;;;4.82;2.42;;;;;;;23.75;52.47;101731.53;4897551;29;20036;-88
2022/07/03 09:12:49;;;;;;;4.72;2.53;;;;;;;23.80;52.95;101722.09;4903655;29;20032;-88
2022/07/03 09:15:19;;;;;;;4.93;2.55;;;;;;;23.93;52.45;101733.94;4902352;29;20033;-87
2022/07/03 09:18:06;;;;;;;5.22;2.55;;;;;;;24.16;53.79;101733.94;4865164;29;20502;-87
2022/07/03 09:20:38;;;;;;;8.13;2.60;;;;;;;24.09;53.96;101738.34;4879570;29;20032;-88
2022/07/03 09:23:36;;;;;;;3.43;2.70;;;;;;;24.05;53.21;101737.06;4896167;29;20073;-87
2022/07/03 09:26:03;;;;;;;5.55;2.60;;;;;;;23.55;51.08;101738.38;4881176;29;20024;-87
2022/07/03 09:28:46;;;;;;;6.35;3.50;;;;;;;23.48;53.79;101734.69;4898701;29;20024;-88
2022/07/03 09:31:15;;;;;;;6.35;2.85;;;;;;;23.77;52.86;101743.97;4915276;29;20032;-87
2022/07/03 09:33:50;;;;;;;6.85;2.80;;;;;;;24.02;52.27;101749.00;4914163;29;20473;-87
2022/07/03 09:36:36;;;;;;;4.70;2.65;;;;;;;23.87;52.04;101741.88;4916988;29;20028;-87
2022/07/03 09:39:30;;;;;;;5.88;2.75;;;;;;;24.23;53.57;101752.88;4902305;29;20115;-86
2022/07/03 09:41:58;;;;;;;5.28;2.92;;;;;;;23.99;51.81;101753.88;4900661;29;20055;-86
2022/07/03 09:44:35;;;;;;;6.95;3.00;;;;;;;23.95;53.27;101760.63;4890209;29;20053;-87
2022/07/03 09:47:12;;;;;;;4.90;2.70;;;;;;;23.81;52.54;101761.41;4909370;29;20375;-86
2022/07/03 09:49:54;;;;;;;7.32;2.88;;;;;;;23.77;53.90;101765.47;4912555;29;20028;-86
2022/07/03 09:52:28;;;;;;;6.57;2.47;;;;;;;23.56;53.91;101753.47;4905235;29;20080;-86
2022/07/03 09:54:54;;;;;;;4.88;2.50;;;;;;;23.43;52.97;101742.44;4921807;29;20040;-86
2022/07/03 09:57:25;;;;;;;4.32;2.38;;;;;;;23.63;52.10;101746.41;4936142;29;20042;-88
2022/07/03 10:00:15;;;;;;;5.65;2.17;;;;;;;23.78;52.89;101756.38;4916679;29;20051;-87
2022/07/03 10:03:02;;;;;;;4.75;1.73;;;;;;;23.94;52.54;101756.28;4933949;29;20027;-87
2022/07/03 10:05:36;;;;;;;5.25;1.88;;;;;;;23.82;52.35;101757.69;4933387;29;20404;-87
2022/07/03 10:08:03;;;;;;;4.10;2.25;;;;;;;23.50;52.55;101754.16;4933928;29;20102;-87
2022/07/03 10:10:31;;;;;;;3.60;2.00;;;;;;;23.29;53.21;101748.56;4933246;29;20023;-87
2022/07/03 10:12:58;;;;;;;6.72;2.10;;;;;;;23.12;51.98;101756.66;4934661;29;20050;-87
2022/07/03 10:15:30;;;;;;;4.82;2.10;;;;;;;22.92;52.98;101750.03;4934081;29;20030;-87
2022/07/03 10:18:15;;;;;;;6.05;1.98;;;;;;;22.62;53.79;101748.03;4916733;29;20019;-87
2022/07/03 10:20:49;;;;;;;6.20;2.25;;;;;;;22.54;54.10;101751.59;4913598;29;20032;-87
2022/07/03 10:23:16;;;;;;;8.50;2.53;;;;;;;22.84;53.89;101751.91;4916533;29;20031;-87
2022/07/03 10:25:47;;;;;;;4.68;2.17;;;;;;;22.86;55.32;101745.34;4915291;29;20028;-87
2022/07/03 10:28:13;;;;;;;3.47;2.00;;;;;;;22.83;54.64;101753.75;4915467;29;20032;-87
2022/07/03 10:30:40;;;;;;;6.30;1.95;;;;;;;23.38;54.42;101752.88;4932682;29;20023;-87
2022/07/03 10:33:06;;;;;;;4.15;1.90;;;;;;;23.68;51.09;101757.47;4932349;29;20035;-87
2022/07/03 10:35:36;;;;;;;3.45;1.60;;;;;;;23.91;49.67;101760.16;4933105;29;20043;-87
2022/07/03 10:38:02;;;;;;;3.13;1.20;;;;;;;24.09;48.15;101770.63;4938775;29;20026;-86
2022/07/03 10:46:22;;;;;;;2.65;1.50;;;;;;;23.60;48.87;101760.16;4932452;29;20035;-87
2022/07/03 10:49:10;;;;;;;2.50;1.58;;;;;;;23.51;50.85;101771.09;4932757;29;20087;-86
2022/07/03 10:51:41;;;;;;;4.45;2.00;;;;;;;23.46;50.25;101768.94;4934016;29;20026;-87
2022/07/03 10:54:15;;;;;;;4.10;1.88;;;;;;;23.73;51.66;101768.50;4936147;29;20412;-88
2022/07/03 10:57:02;;;;;;;3.72;1.90;;;;;;;23.67;49.39;101766.53;4935952;29;20103;-87
2022/07/03 10:59:45;;;;;;;1.92;1.45;;;;;;;23.51;49.92;101763.06;4919798;29;20073;-86
2022/07/03 11:02:34;;;;;;;3.80;2.50;;;;;;;23.38;51.20;101761.78;4937238;29;20034;-87
2022/07/03 11:05:00;;;;;;;5.20;2.25;;;;;;;23.17;49.72;101764.19;4919677;29;20015;-86
2022/07/03 11:07:27;;;;;;;4.95;2.20;;;;;;;23.35;51.42;101761.28;4936234;29;20068;-87
2022/07/03 11:10:14;;;;;;;5.55;2.10;;;;;;;23.79;50.72;101760.75;4919084;29;20020;-86
2022/07/03 11:12:57;;;;;;;4.03;2.10;;;;;;;24.28;50.44;101753.19;4936735;29;20110;-86
2022/07/03 11:15:27;;;;;;;4.25;2.28;;;;;;;24.55;47.53;101754.47;4936022;29;20056;-86
2022/07/03 11:18:05;;;;;;;2.78;1.80;;;;;;;24.62;47.71;101756.25;4918780;29;20031;-86
2022/07/03 11:20:51;;;;;;;3.08;2.42;;;;;;;24.51;47.94;101758.53;4942938;28;20047;-86
2022/07/03 11:23:31;;;;;;;5.63;2.90;;;;;;;24.17;47.93;101751.75;4902138;29;20039;-87
2022/07/03 11:26:10;;;;;;;6.43;2.35;;;;;;;24.00;47.88;101752.84;4922254;29;20580;-87
2022/07/03 11:28:35;;;;;;;3.75;2.28;;;;;;;23.95;47.55;101747.19;4934812;29;20416;-87
2022/07/03 11:31:16;;;;;;;3.63;2.03;;;;;;;23.90;49.19;101750.41;4918608;29;20036;-87
2022/07/03 11:34:00;;;;;;;3.65;2.35;;;;;;;24.03;49.42;101741.78;4918157;29;20058;-87
2022/07/03 11:36:31;;;;;;;4.28;3.00;;;;;;;23.93;49.85;101738.47;4944559;28;20023;-86
2022/07/03 11:39:00;;;;;;;4.75;3.38;;;;;;;23.62;50.70;101741.22;4918464;29;20027;-86
2022/07/03 11:41:39;;;;;;;3.80;3.15;;;;;;;23.34;52.44;101743.50;4929950;29;20095;-86
2022/07/03 11:44:07;;;;;;;4.40;2.83;;;;;;;22.91;51.81;101743.00;4935585;29;20504;-87
2022/07/03 11:46:39;;;;;;;5.80;3.28;;;;;;;22.60;52.55;101752.75;4947339;29;20035;-86
2022/07/03 11:49:16;;;;;;;4.73;2.47;;;;;;;22.77;53.00;101746.34;4934440;29;20557;-86
2022/07/03 11:51:53;;;;;;;4.28;2.33;;;;;;;23.06;53.08;101743.94;4925480;29;20519;-86
2022/07/03 11:54:18;;;;;;;3.95;1.95;;;;;;;23.41;50.59;101739.09;4953746;29;20059;-86
2022/07/03 11:56:44;;;;;;;3.13;1.80;;;;;;;23.65;50.12;101741.69;4930951;29;20019;-86
2022/07/03 11:59:09;;;;;;;4.63;1.50;;;;;;;24.02;48.03;101738.25;4935541;29;20024;-86
2022/07/03 12:01:37;;;;;;;4.93;1.63;;;;;;;24.29;49.52;101734.16;4936022;29;20028;-86
2022/07/03 12:04:05;;;;;;;3.97;1.50;;;;;;;24.10;47.18;101737.34;4934443;29;20095;-86
2022/07/03 12:06:41;;;;;;;6.32;1.67;;;;;;;23.85;47.87;101730.47;4935122;29;20120;-85
2022/07/03 12:09:19;;;;;;;4.25;1.05;;;;;;;23.68;48.85;101746.72;4917626;29;20115;-86
2022/07/03 12:12:03;;;;;;;3.25;1.30;;;;;;;23.57;50.35;101748.94;4916979;29;20119;-85
2022/07/03 12:14:47;;;;;;;4.97;1.40;;;;;;;23.63;50.12;101743.72;4930404;29;20032;-86
2022/07/03 12:17:26;;;;;;;3.47;1.10;;;;;;;23.90;49.06;101739.66;4934445;29;20098;-86
2022/07/03 12:19:53;;;;;;;2.60;0.93;;;;;;;24.34;47.48;101737.16;4917247;29;20034;-86
2022/07/03 12:22:35;;;;;;;2.15;0.95;;;;;;;24.42;47.49;101735.44;4916619;29;20066;-85
2022/07/03 12:25:26;;;;;;;3.30;1.08;;;;;;;24.13;46.09;101742.34;4930926;29;20038;-86
2022/07/03 12:28:14;;;;;;;2.10;0.90;;;;;;;23.79;47.28;101739.25;4933993;29;20100;-86
2022/07/03 12:30:45;;;;;;;3.40;0.80;;;;;;;23.83;47.17;101738.72;4931688;29;20036;-85
2022/07/03 12:33:20;;;;;;;2.03;0.80;;;;;;;23.97;46.99;101745.16;4916982;29;20141;-86
2022/07/03 12:36:19;;;;;;;1.45;0.80;;;;;;;24.04;46.67;101740.75;4913771;29;20385;-85
2022/07/03 12:38:48;;;;;;;3.58;0.90;;;;;;;23.89;45.47;101737.16;4911518;29;20119;-85
2022/07/03 12:41:15;;;;;;;1.88;0.70;;;;;;;23.71;43.79;101746.34;4932227;29;20032;-86
2022/07/03 12:43:48;;;;;;;2.13;0.68;;;;;;;23.97;45.03;101737.09;4933675;29;20110;-85
2022/07/03 12:46:49;;;;;;;4.40;0.70;;;;;;;24.08;45.52;101731.31;4916572;29;20062;-85
2022/07/03 12:49:52;;;;;;;2.33;0.70;;;;;;;23.79;45.20;101732.03;4916187;29;20150;-86
2022/07/03 12:52:20;;;;;;;1.77;0.70;;;;;;;23.76;46.82;101740.44;4833144;29;20046;-87
2022/07/03 12:54:45;;;;;;;2.35;0.80;;;;;;;23.79;46.46;101731.19;4837020;29;20049;-86
2022/07/03 13:00:24;;;;;;;3.00;0.80;;;;;;;23.59;46.76;101733.47;4876145;29;20050;-86
2022/07/03 13:03:38;;;;;;;2.33;0.80;;;;;;;23.43;46.98;101742.44;4915044;29;20484;-85
2022/07/03 13:06:14;;;;;;;1.25;0.63;;;;;;;23.68;44.69;101737.81;4914086;29;20035;-86
2022/07/03 13:08:58;;;;;;;1.45;0.60;;;;;;;24.15;43.47;101737.63;4932017;29;20035;-87
2022/07/03 13:12:00;;;;;;;0.80;0.50;;;;;;;24.32;44.44;101736.50;4914032;29;20042;-86
2022/07/03 13:14:35;;;;;;;1.58;0.57;;;;;;;24.56;42.82;101734.59;4928265;29;20043;-86
2022/07/03 13:17:27;;;;;;;;;;;;;;;;;;;;;
2022/07/03 13:23:44;;;;;;;2.40;0.63;;;;;;;24.94;42.11;101722.75;4896512;29;20050;-87
2022/07/03 13:26:18;;;;;;;2.13;0.50;;;;;;;24.58;39.88;101727.19;4934971;29;20055;-87
2022/07/03 13:28:50;;;;;;;2.53;0.80;;;;;;;24.75;39.71;101730.53;4938129;29;20040;-86
2022/07/03 13:31:18;;;;;;;1.23;0.70;;;;;;;24.71;40.06;101730.06;4927724;29;20034;-86
2022/07/03 13:33:47;;;;;;;1.02;0.50;;;;;;;24.78;39.79;101732.84;4933616;29;20051;-86
2022/07/03 13:36:13;;;;;;;4.28;0.50;;;;;;;24.68;38.75;101733.13;4916435;29;20027;-86
2022/07/03 13:38:38;;;;;;;1.23;0.60;;;;;;;24.51;39.17;101737.03;4929665;29;20032;-86
2022/07/03 13:41:04;;;;;;;1.30;0.60;;;;;;;24.28;40.09;101731.66;4933825;29;20027;-86
2022/07/03 13:43:33;;;;;;;2.38;0.90;;;;;;;24.35;42.63;101733.44;4933775;29;20528;-87
2022/07/03 13:46:01;;;;;;;2.30;1.00;;;;;;;24.75;43.66;101739.44;4917318;29;20032;-87
2022/07/03 13:48:32;;;;;;;2.85;1.00;;;;;;;24.88;44.70;101739.66;4933795;29;20496;-87
2022/07/03 13:50:57;;;;;;;3.42;1.40;;;;;;;24.95;44.63;101740.56;4934764;29;20027;-87
2022/07/03 13:53:35;;;;;;;3.92;1.48;;;;;;;24.83;44.44;101747.47;4932357;29;20536;-87
2022/07/03 13:56:03;;;;;;;7.90;1.83;;;;;;;24.81;44.14;101748.63;4919875;29;20027;-87
2022/07/03 13:58:47;;;;;;;5.45;1.48;;;;;;;24.90;44.67;101753.75;4927287;29;20112;-86
2022/07/03 14:01:13;;;;;;;3.95;1.30;;;;;;;24.69;44.29;101753.63;4933937;29;20031;-87
2022/07/03 14:03:38;;;;;;;4.00;1.42;;;;;;;24.53;45.10;101756.50;4928404;29;20527;-87
2022/07/03 14:06:07;;;;;;;4.70;1.20;;;;;;;24.54;43.95;101758.19;4933574;29;20461;-87
2022/07/03 14:08:36;;;;;;;2.53;1.23;;;;;;;24.82;44.77;101761.94;4914734;29;20051;-87
2022/07/03 14:11:02;;;;;;;3.17;1.40;;;;;;;24.75;43.53;101755.59;4915752;29;20027;-87
2022/07/03 14:13:34;;;;;;;5.55;1.27;;;;;;;24.73;43.84;101765.72;4915629;29;20031;-87
2022/07/03 14:16:00;;;;;;;5.63;1.42;;;;;;;24.52;43.87;101770.97;4915892;29;20400;-86
2022/07/03 14:18:25;;;;;;;3.08;1.40;;;;;;;24.15;44.97;101766.38;4932177;29;20024;-86
2022/07/03 14:20:51;;;;;;;3.30;1.13;;;;;;;23.86;45.62;101775.16;4933043;29;20042;-86
2022/07/03 14:23:16;;;;;;;3.80;1.40;;;;;;;23.55;46.13;101773.28;4934701;29;20028;-86
2022/07/03 14:25:42;;;;;;;5.25;1.30;;;;;;;23.35;46.21;101772.03;4934895;29;20392;-87
2022/07/03 14:33:35;;;;;;;2.03;1.10;;;;;;;23.54;45.95;101766.22;4936944;29;20039;-86
2022/07/03 14:36:00;;;;;;;3.40;1.20;;;;;;;23.63;44.61;101765.22;4920662;29;20027;-86
2022/07/03 14:38:33;;;;;;;2.40;1.17;;;;;;;23.54;45.46;101774.28;4936500;29;20059;-86
2022/07/03 14:41:04;;;;;;;2.92;1.23;;;;;;;23.72;45.38;101774.06;4919866;29;20392;-86
2022/07/03 14:43:53;;;;;;;3.72;1.77;;;;;;;23.88;44.22;101767.75;4936571;29;20055;-86
2022/07/03 14:46:25;;;;;;;1.88;0.95;;;;;;;24.02;45.10;101775.06;4895486;29;20134;-87
2022/07/03 14:48:51;;;;;;;2.22;1.00;;;;;;;24.20;44.90;101783.66;4912776;29;20055;-87
2022/07/03 14:51:22;;;;;;;1.85;1.00;;;;;;;24.16;45.53;101776.97;4917929;29;20615;-86
2022/07/03 14:53:47;;;;;;;2.63;1.00;;;;;;;24.23;44.50;101774.38;4916310;29;20044;-86
2022/07/03 14:56:18;;;;;;;7.45;1.20;;;;;;;24.29;45.25;101777.22;4915693;29;20158;-87
2022/07/03 14:58:46;;;;;;;4.28;1.20;;;;;;;24.19;45.86;101773.91;4913359;29;20032;-86
2022/07/03 15:01:11;;;;;;;3.70;1.02;;;;;;;24.03;46.00;101792.88;4924806;29;20031;-86
2022/07/03 15:04:01;;;;;;;2.65;1.10;;;;;;;23.82;46.42;101784.59;4928789;29;20094;-86
2022/07/03 15:06:31;;;;;;;3.28;0.88;;;;;;;23.59;46.56;101785.38;4928067;29;20366;-86
2022/07/03 15:09:07;;;;;;;4.47;1.42;;;;;;;23.74;47.43;101789.00;4925158;29;20063;-86
2022/07/03 15:12:26;;;;;;;5.43;1.23;;;;;;;24.02;47.55;101789.34;4924304;29;20047;-86
2022/07/03 15:14:53;;;;;;;3.13;1.05;;;;;;;24.04;44.36;101797.22;4898926;29;20043;-86
2022/07/03 15:17:22;;;;;;;3.83;1.00;;;;;;;24.05;44.98;101798.91;4928915;29;20031;-85
2022/07/03 15:19:49;;;;;;;8.20;1.20;;;;;;;23.78;45.94;101788.63;4925226;29;20039;-86
2022/07/03 15:22:16;;;;;;;1.75;0.82;;;;;;;23.72;45.37;101791.03;4936451;29;20591;-85
2022/07/03 15:24:41;;;;;;;3.75;1.00;;;;;;;23.73;45.49;101787.31;4935484;29;20110;-86
2022/07/03 15:27:07;;;;;;;3.58;1.20;;;;;;;23.60;46.35;101788.88;4918740;29;20123;-86
2022/07/03 15:29:36;;;;;;;2.78;1.02;;;;;;;23.28;46.68;101787.19;4918455;29;20403;-86
2022/07/03 15:32:04;;;;;;;5.40;1.10;;;;;;;23.25;47.69;101782.16;4931145;29;20055;-86
2022/07/03 15:34:29;;;;;;;3.03;0.80;;;;;;;23.22;46.46;101787.88;4933412;29;20038;-85
2022/07/03 15:37:18;;;;;;;2.78;0.93;;;;;;;23.25;47.13;101787.53;4918902;29;20388;-86
2022/07/03 15:40:22;;;;;;;2.00;0.88;;;;;;;23.45;46.33;101788.78;4935582;29;20510;-86
2022/07/03 15:42:53;;;;;;;2.50;1.08;;;;;;;23.49;45.14;101779.34;4932815;29;20043;-85
2022/07/03 15:45:32;;;;;;;2.03;1.10;;;;;;;23.69;45.76;101793.22;4918081;29;20114;-86
2022/07/03 15:48:34;;;;;;;3.75;1.40;;;;;;;23.59;45.63;101788.06;4916748;29;20082;-86
2022/07/03 15:51:43;;;;;;;2.22;1.42;;;;;;;23.64;44.99;101785.69;4910807;29;20050;-87
2022/07/03 15:54:14;;;;;;;3.30;0.98;;;;;;;23.52;45.40;101789.75;4904868;29;20048;-86
2022/07/03 15:56:43;;;;;;;4.10;0.80;;;;;;;23.48;44.77;101792.97;4908579;29;20119;-87
2022/07/03 15:59:16;;;;;;;5.13;0.95;;;;;;;23.21;43.87;101796.91;4916262;29;20083;-87
2022/07/03 16:02:12;;;;;;;3.20;1.02;;;;;;;23.06;44.15;101799.47;4913341;29;20441;-87
2022/07/03 16:04:56;;;;;;;2.08;1.08;;;;;;;22.81;45.03;101801.38;4912133;29;20374;-87
2022/07/03 16:07:24;;;;;;;2.28;0.70;;;;;;;22.64;45.77;101794.31;4910207;29;20024;-87
2022/07/03 16:09:50;;;;;;;3.50;1.70;;;;;;;22.60;47.07;101801.03;4907279;29;20513;-86
2022/07/03 16:12:20;;;;;;;4.05;1.35;;;;;;;22.53;46.34;101798.19;4916659;29;20032;-86
2022/07/03 16:14:48;;;;;;;4.40;1.60;;;;;;;22.33;46.30;101789.63;4914389;29;20024;-85
2022/07/03 16:17:17;;;;;;;1.90;0.80;;;;;;;22.45;45.66;101791.00;4912763;29;20027;-86
2022/07/03 16:19:44;;;;;;;3.08;1.02;;;;;;;22.43;44.58;101793.00;4898722;29;20485;-85
2022/07/03 16:22:13;;;;;;;3.97;0.80;;;;;;;22.32;45.51;101787.97;4915329;29;20080;-85
2022/07/03 16:24:41;;;;;;;2.58;0.93;;;;;;;22.29;46.39;101796.34;4915383;29;20400;-85
2022/07/03 16:27:10;;;;;;;1.85;0.85;;;;;;;22.44;46.44;101794.69;4899191;29;20032;-86
2022/07/03 16:29:36;;;;;;;3.05;0.80;;;;;;;22.49;46.50;101795.00;4915865;29;20036;-86
2022/07/03 16:32:03;;;;;;;3.22;0.68;;;;;;;22.37;45.33;101798.19;4912985;29;20035;-86
2022/07/03 16:34:38;;;;;;;2.97;0.85;;;;;;;22.55;46.39;101796.19;4915854;29;20043;-86
2022/07/03 16:37:08;;;;;;;6.78;0.95;;;;;;;22.49;46.50;101799.53;4912979;29;20051;-86
2022/07/03 16:39:35;;;;;;;3.72;0.82;;;;;;;22.55;44.52;101790.81;4914176;29;20048;-84
2022/07/03 16:42:31;;;;;;;5.30;0.90;;;;;;;22.55;43.41;101789.97;4917279;29;20024;-85
2022/07/03 16:45:12;;;;;;;1.55;0.68;;;;;;;22.46;43.44;101800.72;4898748;29;20044;-87
2022/07/03 16:47:43;;;;;;;2.45;1.00;;;;;;;22.34;43.16;101799.34;4912847;29;20060;-86
2022/07/03 16:50:16;;;;;;;2.47;0.65;;;;;;;22.30;43.72;101797.16;4915498;29;20144;-87
2022/07/03 16:52:48;;;;;;;2.92;0.60;;;;;;;21.79;43.64;101802.59;4910894;29;20051;-87
2022/07/03 16:55:15;;;;;;;2.60;0.68;;;;;;;21.62;44.38;101800.88;4918389;29;20126;-86
2022/07/03 16:57:52;;;;;;;4.47;1.10;;;;;;;21.59;44.84;101803.84;4915854;29;20056;-87
2022/07/03 17:01:00;;;;;;;4.50;1.00;;;;;;;21.80;45.49;101806.09;4915541;29;20542;-87
2022/07/03 17:03:55;;;;;;;3.10;1.02;;;;;;;21.77;44.92;101796.56;4847779;29;20033;-87
2022/07/03 17:06:35;;;;;;;1.52;0.80;;;;;;;21.71;44.60;101797.22;4852762;29;20113;-86
2022/07/03 17:09:12;;;;;;;2.38;1.10;;;;;;;21.65;46.84;101786.31;4843739;29;20387;-87
2022/07/03 17:11:38;;;;;;;4.88;0.90;;;;;;;21.66;45.44;101788.00;4851208;29;20049;-85
2022/07/03 17:14:07;;;;;;;2.13;0.88;;;;;;;21.73;44.49;101800.56;4859834;29;20041;-87
2022/07/03 17:20:08;;;;;;;4.10;1.20;;;;;;;21.47;45.92;101799.78;4848142;29;20044;-86
2022/07/03 17:22:43;;;;;;;2.65;0.85;;;;;;;21.26;46.41;101803.72;4854245;29;20078;-86
2022/07/03 17:25:17;;;;;;;4.15;0.90;;;;;;;21.19;47.34;101797.28;4840821;29;20422;-86
2022/07/03 17:27:43;;;;;;;2.47;0.88;;;;;;;21.16;47.26;101802.97;4853987;29;20056;-86
2022/07/03 17:30:38;;;;;;;3.72;0.70;;;;;;;21.17;47.44;101799.28;4880113;29;20024;-86
2022/07/03 17:33:07;;;;;;;2.55;0.70;;;;;;;21.12;47.44;101806.94;4893133;29;20085;-87
2022/07/03 17:35:38;;;;;;;3.47;0.80;;;;;;;21.06;48.07;101802.25;4903520;29;20051;-87
2022/07/03 17:38:15;;;;;;;2.47;1.00;;;;;;;20.97;48.41;101821.94;4894204;29;20036;-87
2022/07/03 17:40:43;;;;;;;5.35;0.88;;;;;;;20.94;47.54;101820.41;4879439;29;20024;-86
2022/07/03 17:43:09;;;;;;;3.97;1.10;;;;;;;20.85;47.27;101820.50;4897844;29;20063;-87
2022/07/03 17:45:45;;;;;;;2.90;0.70;;;;;;;20.71;47.90;101816.53;4925312;29;20027;-86
2022/07/03 17:48:10;;;;;;;2.30;0.70;;;;;;;20.71;48.36;101819.22;4869795;29;20476;-87
2022/07/03 17:50:36;;;;;;;1.83;0.80;;;;;;;20.65;48.59;101822.53;4872659;29;20085;-86
2022/07/03 17:53:07;;;;;;;1.77;0.60;;;;;;;20.54;48.88;101820.94;4884655;29;20048;-86
2022/07/03 17:55:36;;;;;;;5.60;0.93;;;;;;;20.51;48.92;101821.25;4893507;29;20192;-87
2022/07/03 17:58:01;;;;;;;3.28;0.80;;;;;;;20.43;48.62;101826.53;4879104;29;20067;-86
2022/07/03 18:00:27;;;;;;;3.03;0.85;;;;;;;20.34;48.21;101816.72;4915660;29;20037;-85
2022/07/03 18:02:54;;;;;;;2.03;0.70;;;;;;;20.29;48.44;101819.00;4916755;29;20029;-86
2022/07/03 18:05:26;;;;;;;6.25;0.80;;;;;;;20.27;48.81;101832.53;4917539;29;20020;-86
2022/07/03 18:08:12;;;;;;;2.60;0.67;;;;;;;20.23;49.01;101836.50;5131283;23;20045;-86
2022/07/03 18:11:19;;;;;;;3.10;0.60;;;;;;;20.16;48.12;101838.09;5312984;23;20036;-86
2022/07/03 18:14:16;;;;;;;4.20;0.82;;;;;;;20.18;48.61;101840.63;4949899;29;20034;-87
2022/07/03 18:16:46;;;;;;;2.55;0.70;;;;;;;20.02;49.15;101831.44;4934928;29;20050;-88
2022/07/03 18:19:12;;;;;;;1.85;0.70;;;;;;;19.91;49.66;101825.47;4935566;29;20028;-87
2022/07/03 18:21:41;;;;;;;2.45;0.60;;;;;;;19.89;50.07;101830.94;4936011;29;20120;-88
2022/07/03 18:24:21;;;;;;;2.85;0.73;;;;;;;19.92;50.72;101827.97;4932155;29;20012;-88
2022/07/03 18:29:23;;;;;;;3.25;0.80;;;;;;;19.78;50.41;101831.16;4726857;27;20076;-86
2022/07/03 18:32:42;;;;;;;1.40;0.70;;;;;;;19.80;50.15;101837.19;4931708;29;20065;-86
2022/07/03 18:35:08;;;;;;;2.55;0.70;;;;;;;19.64;49.77;101835.19;4844614;29;20055;-85
2022/07/03 18:37:39;;;;;;;2.90;0.63;;;;;;;19.54;50.44;101844.22;4859559;29;20049;-86
2022/07/03 18:40:06;;;;;;;4.32;0.98;;;;;;;19.48;50.06;101845.59;4859359;29;20043;-86
2022/07/03 18:42:31;;;;;;;4.22;0.80;;;;;;;19.51;51.18;101845.31;4844025;29;20010;-86
2022/07/03 18:45:02;;;;;;;6.05;1.10;;;;;;;19.47;50.88;101851.09;4896480;29;20135;-87
2022/07/03 18:47:27;;;;;;;12.25;0.95;;;;;;;19.38;51.16;101845.66;4927075;29;20023;-86
2022/07/03 18:49:53;;;;;;;4.97;1.13;;;;;;;19.29;52.13;101843.88;4940493;29;20179;-87
2022/07/03 18:52:42;;;;;;;5.85;0.90;;;;;;;19.30;51.94;101850.06;4922524;29;20036;-86
2022/07/03 18:55:15;;;;;;;3.17;0.75;;;;;;;19.22;52.61;101856.13;4924558;29;20271;-86
2022/07/03 18:57:53;;;;;;;1.60;0.82;;;;;;;19.15;52.92;101860.31;4946656;29;20028;-86
2022/07/03 19:00:30;;;;;;;2.28;0.75;;;;;;;19.05;53.06;101854.19;4916450;29;20040;-86
2022/07/03 19:03:22;;;;;;;2.17;0.70;;;;;;;19.07;53.07;101854.88;4931541;29;20088;-86
2022/07/03 19:05:53;;;;;;;3.50;0.90;;;;;;;18.88;52.84;101852.25;4921644;29;21027;-87
2022/07/03 19:08:31;;;;;;;2.35;0.70;;;;;;;18.86;52.82;101854.22;4931528;29;20080;-87
2022/07/03 19:11:00;;;;;;;2.20;0.80;;;;;;;18.75;53.26;101858.72;4938308;29;20032;-86
2022/07/03 19:13:30;;;;;;;4.40;1.02;;;;;;;18.73;54.11;101855.34;4935510;29;20034;-86
2022/07/03 19:16:13;;;;;;;2.03;0.80;;;;;;;18.69;53.39;101853.94;4927711;29;20008;-87
2022/07/03 19:18:52;;;;;;;1.65;0.70;;;;;;;18.53;54.01;101856.31;4942119;29;20033;-83
2022/07/03 19:21:20;;;;;;;3.10;0.85;;;;;;;18.45;54.07;101856.19;4924176;29;20030;-86
2022/07/03 19:23:45;;;;;;;2.95;0.70;;;;;;;18.39;54.46;101851.38;4925137;29;20017;-87
2022/07/03 19:26:11;;;;;;;3.15;0.85;;;;;;;18.43;55.14;101859.00;4942360;29;20044;-86
2022/07/03 19:28:36;;;;;;;3.92;0.90;;;;;;;18.27;55.02;101860.50;4940982;29;20096;-86
2022/07/03 19:31:02;;;;;;;2.08;0.70;;;;;;;18.19;55.14;101863.84;4943277;29;20016;-86
2022/07/03 19:33:27;;;;;;;2.33;0.80;;;;;;;18.19;55.49;101855.88;4942484;29;20099;-86
2022/07/03 19:35:52;;;;;;;4.57;0.77;;;;;;;18.08;56.26;101854.16;4941633;29;20013;-87
2022/07/03 19:38:20;;;;;;;3.50;0.93;;;;;;;18.10;56.90;101857.53;4942371;29;20219;-85
2022/07/03 19:40:46;;;;;;;3.03;0.85;;;;;;;17.99;56.41;101854.97;4932013;29;20025;-87
2022/07/03 19:43:14;;;;;;;4.07;1.02;;;;;;;17.92;57.03;101853.84;4949745;29;20020;-87
2022/07/03 19:45:40;;;;;;;3.25;0.90;;;;;;;17.88;56.76;101851.59;4927089;29;20016;-85
2022/07/03 19:48:07;;;;;;;4.07;0.95;;;;;;;17.75;57.37;101859.81;4956731;29;20120;-86
2022/07/03 19:50:34;;;;;;;2.67;0.90;;;;;;;17.70;57.97;101867.38;4925077;29;20119;-87
2022/07/03 19:52:59;;;;;;;2.63;0.80;;;;;;;17.61;58.60;101862.81;4939325;29;20020;-86
2022/07/03 19:55:32;;;;;;;1.98;0.90;;;;;;;17.57;58.39;101864.06;4937264;29;20058;-87
2022/07/03 19:58:01;;;;;;;3.20;0.98;;;;;;;17.51;59.21;101866.28;4916961;29;20028;-87
2022/07/03 20:00:27;;;;;;;2.22;0.98;;;;;;;17.36;59.96;101872.94;4901268;29;20028;-87
2022/07/03 20:02:56;;;;;;;1.45;0.80;;;;;;;17.34;60.73;101880.22;4901453;29;20385;-87
2022/07/03 20:05:22;;;;;;;2.28;0.90;;;;;;;17.39;60.50;101891.28;4930550;29;20024;-86
2022/07/03 20:07:47;;;;;;;1.92;0.93;;;;;;;17.21;60.33;101906.16;4934462;29;20400;-86
2022/07/03 20:10:14;;;;;;;3.13;1.05;;;;;;;17.15;60.69;101902.19;4920452;29;20083;-86
2022/07/03 20:12:42;;;;;;;3.70;0.80;;;;;;;17.12;60.81;101910.44;4922625;29;20173;-86
2022/07/03 20:15:11;;;;;;;3.70;0.93;;;;;;;17.11;61.81;101914.06;4901782;29;20098;-87
2022/07/03 20:17:38;;;;;;;3.17;0.90;;;;;;;16.97;61.28;101918.88;4922638;29;20032;-86
2022/07/03 20:20:04;;;;;;;3.33;0.98;;;;;;;16.90;61.32;101919.41;4917895;29;20028;-86
2022/07/03 20:22:32;;;;;;;2.55;1.00;;;;;;;16.79;62.37;101914.09;4916659;29;20028;-86